Time;durP1;ratioP1;P1;durP2;ratioP2;P2;SDS_P1;SDS_P2;PMS_P1;PMS_P2;Temp;Humidity;BMP_temperature;BMP_pressure;BME280_temperature;BME280_humidity;BME280_pressure;Samples;Min_cycle;Max_cycle;Signal;HPM_P1;HPM_P2
2022/10/24 00:01:10;;;;;;;7.60;0.95;;;14.90;99.90;;;;;;5121993;27;20099;-72
2022/10/24 00:03:36;;;;;;;;;;;14.90;99.90;;;;;;5139905;27;20043;-71
2022/10/24 00:06:05;;;;;;;7.40;0.90;;;14.90;99.90;;;;;;5122114;27;20415;-73
2022/10/24 00:08:30;;;;;;;6.68;0.90;;;14.80;99.90;;;;;;5138707;27;20057;-72
2022/10/24 00:10:56;;;;;;;4.15;0.80;;;14.80;99.90;;;;;;5138577;27;20047;-71
2022/10/24 00:13:22;;;;;;;5.18;1.00;;;14.80;99.90;;;;;;5104823;27;20129;-71
2022/10/24 00:15:49;;;;;;;4.07;1.15;;;14.90;99.90;;;;;;5104654;27;20043;-72
2022/10/24 00:18:15;;;;;;;4.47;0.75;;;14.90;99.90;;;;;;5139168;27;20047;-71
2022/10/24 00:20:41;;;;;;;5.22;1.10;;;14.90;99.90;;;;;;5157076;27;20046;-72
2022/10/24 00:23:08;;;;;;;7.43;1.10;;;14.90;99.90;;;;;;5157355;27;20046;-74
2022/10/24 00:25:34;;;;;;;5.78;0.90;;;14.90;99.90;;;;;;5138621;27;20060;-73
2022/10/24 00:28:00;;;;;;;4.63;0.70;;;15.00;99.90;;;;;;5138280;27;20047;-74
2022/10/24 00:30:26;;;;;;;4.37;1.10;;;15.00;99.90;;;;;;5156798;27;20284;-74
2022/10/24 00:32:52;;;;;;;8.50;1.48;;;15.00;99.90;;;;;;5137349;27;20368;-73
2022/10/24 00:35:18;;;;;;;6.95;0.95;;;15.00;99.90;;;;;;5138408;27;20082;-72
2022/10/24 00:37:44;;;;;;;6.50;1.30;;;15.00;99.90;;;;;;5157082;27;20510;-71
2022/10/24 00:40:13;;;;;;;6.50;1.02;;;15.00;99.90;;;;;;5138260;27;20077;-71
2022/10/24 00:42:39;;;;;;;7.60;1.10;;;15.10;99.90;;;;;;5121690;27;20062;-71
2022/10/24 00:45:44;;;;;;;6.68;1.20;;;15.10;99.90;;;;;;5157167;27;20035;-71
2022/10/24 00:48:25;;;;;;;6.40;1.38;;;15.20;99.90;;;;;;5138183;27;20041;-71
2022/10/24 00:50:58;;;;;;;6.57;1.65;;;15.20;99.90;;;;;;5156554;27;20053;-73
2022/10/24 00:53:25;;;;;;;8.50;1.30;;;15.20;99.90;;;;;;5138461;27;20091;-72
2022/10/24 00:55:54;;;;;;;8.48;1.60;;;15.30;99.90;;;;;;5138749;27;20444;-71
2022/10/24 00:58:23;;;;;;;6.90;1.40;;;15.30;99.90;;;;;;5156545;27;20123;-72
2022/10/24 01:00:50;;;;;;;4.70;1.27;;;15.30;99.90;;;;;;5156239;27;20504;-72
2022/10/24 01:03:15;;;;;;;8.30;1.63;;;15.30;99.90;;;;;;5156301;27;20046;-73
2022/10/24 01:06:04;;;;;;;12.80;1.60;;;15.40;99.90;;;;;;5156202;27;20179;-72
2022/10/24 01:08:55;;;;;;;6.85;1.23;;;15.30;99.90;;;;;;5121510;27;20097;-73
2022/10/24 01:11:49;;;;;;;4.97;1.13;;;15.40;99.90;;;;;;5120946;27;20047;-71
2022/10/24 01:14:33;;;;;;;7.78;1.33;;;15.40;99.90;;;;;;5156224;27;20478;-69
2022/10/24 01:17:13;;;;;;;8.77;1.42;;;15.40;99.90;;;;;;5120841;27;20043;-73
2022/10/24 01:20:10;;;;;;;5.07;1.35;;;15.30;99.90;;;;;;5155838;27;20042;-73
2022/10/24 01:22:48;;;;;;;;;;;15.30;99.90;;;;;;5138310;27;20126;-73
2022/10/24 01:25:54;;;;;;;7.10;1.20;;;15.30;99.90;;;;;;5137373;27;20011;-72
2022/10/24 01:28:57;;;;;;;13.52;1.60;;;15.20;99.90;;;;;;5105005;27;20482;-72
2022/10/24 01:31:48;;;;;;;5.45;0.98;;;15.20;99.90;;;;;;5151952;27;20099;-73
2022/10/24 01:34:40;;;;;;;5.10;1.30;;;15.10;99.90;;;;;;5155099;27;20047;-72
2022/10/24 01:37:11;;;;;;;6.07;1.00;;;15.10;99.90;;;;;;5141168;27;20054;-72
2022/10/24 01:39:43;;;;;;;11.55;1.77;;;15.00;99.90;;;;;;5155761;27;20047;-75
2022/10/24 01:42:13;;;;;;;8.88;1.73;;;15.00;99.90;;;;;;5137313;27;20047;-74
2022/10/24 01:44:47;;;;;;;8.05;1.75;;;14.90;99.90;;;;;;5155382;27;20047;-75
2022/10/24 01:47:25;;;;;;;8.15;1.75;;;14.90;99.90;;;;;;5119831;27;20126;-73
2022/10/24 01:49:57;;;;;;;7.93;1.52;;;14.80;99.90;;;;;;5136828;27;20367;-72
2022/10/24 01:52:27;;;;;;;8.10;1.80;;;14.80;99.90;;;;;;5119613;27;20053;-74
2022/10/24 01:54:53;;;;;;;7.57;1.40;;;14.80;99.90;;;;;;5136210;27;20062;-73
2022/10/24 01:57:19;;;;;;;7.65;1.67;;;14.70;99.90;;;;;;5154781;27;20047;-72
2022/10/24 01:59:47;;;;;;;9.40;1.65;;;14.70;99.90;;;;;;5154581;27;20038;-72
2022/10/24 02:02:21;;;;;;;4.90;1.80;;;14.70;99.90;;;;;;5155177;27;20047;-73
2022/10/24 02:05:01;;;;;;;9.45;1.50;;;14.70;99.90;;;;;;5136799;27;20042;-72
2022/10/24 02:07:28;;;;;;;8.23;1.70;;;14.70;99.90;;;;;;5155407;27;20039;-73
2022/10/24 02:10:00;;;;;;;6.95;1.35;;;14.70;99.90;;;;;;5136145;27;20047;-74
2022/10/24 02:12:28;;;;;;;6.72;1.33;;;14.70;99.90;;;;;;5154778;27;20046;-73
2022/10/24 02:15:10;;;;;;;7.97;1.20;;;14.70;99.90;;;;;;5154313;27;20095;-73
2022/10/24 02:17:35;;;;;;;5.88;1.75;;;14.60;99.90;;;;;;5154431;27;20100;-73
2022/10/24 02:20:01;;;;;;;7.20;1.10;;;14.60;99.90;;;;;;5101776;27;20114;-74
2022/10/24 02:22:37;;;;;;;9.05;1.60;;;14.70;99.90;;;;;;5154282;27;20053;-73
2022/10/24 02:25:11;;;;;;;6.88;1.40;;;14.60;99.90;;;;;;5154355;27;20050;-72
2022/10/24 02:27:39;;;;;;;9.55;1.75;;;14.70;99.90;;;;;;5154227;27;20050;-73
2022/10/24 02:30:15;;;;;;;5.68;1.60;;;14.50;99.90;;;;;;5154140;27;20051;-73
2022/10/24 02:32:44;;;;;;;9.38;1.40;;;14.50;99.90;;;;;;5136151;27;20117;-72
2022/10/24 02:35:13;;;;;;;4.90;1.40;;;14.50;99.90;;;;;;5154307;27;20038;-72
2022/10/24 02:37:46;;;;;;;7.60;1.48;;;14.50;99.90;;;;;;5154075;27;20047;-73
2022/10/24 02:40:14;;;;;;;8.73;1.38;;;14.40;99.90;;;;;;5154240;27;20046;-72
2022/10/24 02:42:41;;;;;;;8.52;1.50;;;14.40;99.90;;;;;;5154112;27;20066;-72
2022/10/24 02:45:09;;;;;;;8.27;1.30;;;14.30;99.90;;;;;;5153841;27;20039;-73
2022/10/24 02:47:38;;;;;;;8.52;1.40;;;14.30;99.90;;;;;;5118711;27;20161;-71
2022/10/24 02:50:05;;;;;;;7.65;1.50;;;14.20;99.90;;;;;;5154088;27;20395;-72
2022/10/24 02:52:31;;;;;;;3.40;1.13;;;14.10;99.90;;;;;;5135750;27;20035;-72
2022/10/24 02:54:57;;;;;;;7.22;1.40;;;14.20;99.90;;;;;;5153919;27;20298;-71
2022/10/24 02:57:24;;;;;;;8.00;1.33;;;14.20;99.90;;;;;;5139068;27;20200;-72
2022/10/24 02:59:49;;;;;;;7.93;1.25;;;14.20;99.90;;;;;;5139706;27;20130;-74
2022/10/24 03:02:15;;;;;;;11.80;1.48;;;14.20;99.90;;;;;;5158227;27;20078;-72
2022/10/24 03:04:41;;;;;;;8.55;1.40;;;14.20;99.90;;;;;;5158045;27;20042;-71
2022/10/24 03:07:07;;;;;;;14.82;1.60;;;14.20;99.90;;;;;;5122445;27;20050;-72
2022/10/24 03:09:33;;;;;;;8.43;1.50;;;14.20;99.90;;;;;;5158225;27;20072;-72
2022/10/24 03:11:59;;;;;;;8.75;1.65;;;14.20;99.90;;;;;;5158045;27;20125;-71
2022/10/24 03:14:25;;;;;;;10.65;1.50;;;14.30;99.90;;;;;;5139428;27;20077;-73
2022/10/24 03:16:51;;;;;;;9.88;1.25;;;14.30;99.90;;;;;;5157751;27;20046;-74
2022/10/24 03:19:16;;;;;;;8.13;1.77;;;14.30;99.90;;;;;;5139395;27;20043;-72
2022/10/24 03:21:42;;;;;;;8.75;1.58;;;14.40;99.90;;;;;;5157836;27;20467;-72
2022/10/24 03:24:08;;;;;;;8.68;1.70;;;14.40;99.90;;;;;;5139065;27;20050;-72
2022/10/24 03:26:34;;;;;;;10.35;1.50;;;14.60;99.90;;;;;;5157977;27;20398;-73
2022/10/24 03:29:00;;;;;;;9.40;1.50;;;14.50;99.90;;;;;;5157871;27;20051;-71
2022/10/24 03:31:26;;;;;;;7.10;1.75;;;14.50;99.90;;;;;;5157622;27;20054;-72
2022/10/24 03:33:52;;;;;;;6.95;1.58;;;14.60;99.90;;;;;;5139150;27;20386;-73
2022/10/24 03:36:17;;;;;;;8.05;1.95;;;14.60;99.90;;;;;;5157866;27;20050;-75
2022/10/24 03:38:43;;;;;;;10.38;1.58;;;14.70;99.90;;;;;;5138977;27;20064;-73
2022/10/24 03:41:09;;;;;;;11.05;1.70;;;14.80;99.90;;;;;;5139032;27;20471;-72
2022/10/24 03:43:34;;;;;;;7.05;1.55;;;14.80;99.90;;;;;;5138795;27;20078;-75
2022/10/24 03:46:00;;;;;;;9.38;1.50;;;14.90;99.90;;;;;;5157322;27;20125;-71
2022/10/24 03:48:26;;;;;;;11.60;1.52;;;14.90;99.90;;;;;;5138890;27;20450;-74
2022/10/24 03:50:52;;;;;;;6.15;1.40;;;14.80;99.90;;;;;;5157293;27;20047;-73
2022/10/24 03:53:18;;;;;;;7.00;1.40;;;14.80;99.90;;;;;;5139404;27;20042;-74
2022/10/24 03:55:44;;;;;;;6.32;1.20;;;14.80;99.90;;;;;;5157809;27;20340;-73
2022/10/24 03:58:09;;;;;;;6.80;1.42;;;14.80;99.90;;;;;;5157303;27;20522;-73
2022/10/24 04:00:39;;;;;;;4.50;1.20;;;14.70;99.90;;;;;;5138523;27;20042;-71
2022/10/24 04:03:05;;;;;;;5.85;1.25;;;14.80;99.90;;;;;;5157177;27;20150;-71
2022/10/24 04:05:31;;;;;;;5.35;1.27;;;14.90;99.90;;;;;;5138198;27;20501;-71
2022/10/24 04:07:57;;;;;;;12.73;1.42;;;14.30;99.90;;;;;;5138518;27;20038;-71
2022/10/24 04:10:22;;;;;;;8.40;1.42;;;14.60;99.90;;;;;;5105227;27;20050;-72
2022/10/24 04:12:48;;;;;;;9.52;1.23;;;14.70;99.90;;;;;;5160010;27;20043;-72
2022/10/24 04:15:14;;;;;;;11.25;1.40;;;14.70;99.90;;;;;;5146876;27;20480;-73
2022/10/24 04:17:40;;;;;;;4.97;1.05;;;14.70;99.90;;;;;;5149475;27;20371;-74
2022/10/24 04:20:06;;;;;;;7.95;1.20;;;14.60;99.90;;;;;;5142243;27;20043;-73
2022/10/24 04:22:32;;;;;;;6.88;1.60;;;14.50;99.90;;;;;;5139128;27;20561;-73
2022/10/24 04:24:57;;;;;;;6.95;1.25;;;14.50;99.90;;;;;;5156562;27;20118;-74
2022/10/24 04:27:23;;;;;;;8.77;1.40;;;14.50;99.90;;;;;;5156800;27;20046;-72
2022/10/24 04:29:49;;;;;;;7.50;1.20;;;14.40;99.90;;;;;;5103809;27;20046;-73
2022/10/24 04:32:15;;;;;;;7.78;1.15;;;14.40;99.90;;;;;;5156200;27;20053;-73
2022/10/24 04:34:40;;;;;;;10.98;1.80;;;14.40;99.90;;;;;;5156664;27;20214;-74
2022/10/24 04:37:06;;;;;;;7.75;1.38;;;14.40;99.90;;;;;;5137641;27;20074;-73
2022/10/24 04:39:32;;;;;;;5.10;1.00;;;14.40;99.90;;;;;;5138111;27;20039;-74
2022/10/24 04:41:57;;;;;;;6.20;1.08;;;14.50;99.90;;;;;;5138157;27;20043;-72
2022/10/24 04:44:23;;;;;;;6.43;0.98;;;14.40;99.90;;;;;;5137930;27;20081;-72
2022/10/24 04:46:49;;;;;;;5.93;1.30;;;14.40;99.90;;;;;;5156793;27;20046;-72
2022/10/24 04:49:15;;;;;;;4.00;1.20;;;14.40;99.90;;;;;;5120492;27;20043;-71
2022/10/24 04:51:40;;;;;;;7.10;1.27;;;14.30;99.90;;;;;;5156212;27;20050;-72
2022/10/24 04:54:07;;;;;;;8.55;1.60;;;14.40;99.90;;;;;;5137776;27;20060;-72
2022/10/24 04:56:33;;;;;;;5.90;1.00;;;14.40;99.90;;;;;;5120860;27;20043;-71
2022/10/24 04:58:58;;;;;;;6.72;0.90;;;14.30;99.90;;;;;;5156194;27;20180;-73
2022/10/24 05:01:24;;;;;;;10.00;1.20;;;14.30;99.90;;;;;;5137276;27;20121;-71
2022/10/24 05:03:50;;;;;;;9.32;1.25;;;14.30;99.90;;;;;;5156060;27;20043;-73
2022/10/24 05:06:16;;;;;;;6.25;0.93;;;14.30;99.90;;;;;;5156836;27;20043;-73
2022/10/24 05:08:41;;;;;;;7.43;1.10;;;14.30;99.90;;;;;;5156514;27;20617;-78
2022/10/24 05:11:10;;;;;;;8.38;0.90;;;14.40;99.90;;;;;;5156406;27;20088;-73
2022/10/24 05:13:40;;;;;;;6.65;0.88;;;14.40;99.90;;;;;;5137886;27;20050;-75
2022/10/24 05:16:06;;;;;;;6.28;0.90;;;14.40;99.90;;;;;;5157278;27;20054;-72
2022/10/24 05:18:32;;;;;;;5.03;0.93;;;14.40;99.90;;;;;;5159412;27;20095;-72
2022/10/24 05:20:59;;;;;;;9.65;1.10;;;14.50;99.90;;;;;;5163708;27;20049;-74
2022/10/24 05:23:25;;;;;;;8.57;1.10;;;14.40;99.90;;;;;;5127762;27;20375;-73
2022/10/24 05:25:51;;;;;;;7.38;1.00;;;14.40;99.90;;;;;;5165889;27;20049;-73
2022/10/24 05:28:17;;;;;;;5.70;0.90;;;14.40;99.90;;;;;;5145339;27;20070;-73
2022/10/24 05:30:43;;;;;;;5.32;0.80;;;14.30;99.90;;;;;;5164546;27;20059;-73
2022/10/24 05:33:09;;;;;;;6.03;0.80;;;14.30;99.90;;;;;;5145704;27;20126;-73
2022/10/24 05:35:35;;;;;;;5.13;0.77;;;14.30;99.90;;;;;;5142609;27;20085;-73
2022/10/24 05:38:01;;;;;;;7.82;1.40;;;14.30;99.90;;;;;;5136839;27;20060;-72
2022/10/24 05:40:27;;;;;;;11.32;0.70;;;14.30;99.90;;;;;;5137202;27;20430;-72
2022/10/24 05:42:52;;;;;;;5.90;0.65;;;14.40;99.90;;;;;;5155950;27;20099;-73
2022/10/24 05:45:18;;;;;;;9.57;0.80;;;14.40;99.90;;;;;;5137327;27;20367;-73
2022/10/24 05:47:44;;;;;;;10.63;0.68;;;14.40;99.90;;;;;;5104156;27;20042;-71
2022/10/24 05:50:10;;;;;;;8.90;0.80;;;14.50;99.90;;;;;;5137845;27;20043;-73
2022/10/24 05:52:37;;;;;;;4.13;0.60;;;14.60;99.90;;;;;;5138120;27;20138;-72
2022/10/24 05:55:04;;;;;;;7.53;1.45;;;14.60;99.90;;;;;;5155987;27;20054;-73
2022/10/24 05:57:30;;;;;;;2.95;0.70;;;14.60;99.90;;;;;;5137943;27;20091;-72
2022/10/24 05:59:56;;;;;;;5.88;0.90;;;14.60;99.90;;;;;;5121511;27;20046;-71
2022/10/24 06:02:22;;;;;;;8.45;1.08;;;14.60;99.90;;;;;;5138611;27;20462;-70
2022/10/24 06:04:49;;;;;;;8.60;1.00;;;14.60;99.90;;;;;;5156335;27;20378;-74
2022/10/24 06:07:18;;;;;;;10.68;0.80;;;14.60;99.90;;;;;;5137188;27;20050;-71
2022/10/24 06:09:44;;;;;;;7.22;0.93;;;14.50;99.90;;;;;;5155330;27;20145;-73
2022/10/24 06:12:10;;;;;;;8.55;0.80;;;14.50;99.90;;;;;;5120516;27;20082;-71
2022/10/24 06:14:39;;;;;;;6.53;1.10;;;14.50;99.90;;;;;;5120042;27;20050;-76
2022/10/24 06:17:08;;;;;;;4.13;0.80;;;14.50;99.90;;;;;;5156300;27;20043;-71
2022/10/24 06:19:35;;;;;;;4.97;0.73;;;14.60;99.90;;;;;;5103997;27;20046;-73
2022/10/24 06:22:01;;;;;;;5.18;0.82;;;14.60;99.90;;;;;;5155285;27;20338;-72
2022/10/24 06:24:27;;;;;;;8.40;1.00;;;14.60;99.90;;;;;;5136882;27;20046;-73
2022/10/24 06:26:53;;;;;;;7.32;0.88;;;14.60;99.90;;;;;;5136006;27;20103;-76
2022/10/24 06:29:19;;;;;;;6.30;0.90;;;14.60;99.90;;;;;;5136556;27;20102;-72
2022/10/24 06:31:45;;;;;;;10.35;1.10;;;14.60;99.90;;;;;;5153771;27;20058;-70
2022/10/24 06:34:10;;;;;;;3.58;0.70;;;14.60;99.90;;;;;;5155030;27;20127;-71
2022/10/24 06:36:36;;;;;;;4.45;0.85;;;14.50;99.90;;;;;;5136218;27;20042;-73
2022/10/24 06:39:02;;;;;;;4.63;0.80;;;14.50;99.90;;;;;;5136285;27;20043;-73
2022/10/24 06:41:28;;;;;;;6.80;0.70;;;14.40;99.90;;;;;;5154354;27;20516;-72
2022/10/24 06:43:55;;;;;;;7.90;0.85;;;14.40;99.90;;;;;;5135769;27;20455;-73
2022/10/24 06:46:22;;;;;;;9.38;0.90;;;14.50;99.90;;;;;;5154724;27;20482;-73
2022/10/24 06:48:52;;;;;;;6.75;0.73;;;14.50;99.90;;;;;;5135753;27;20086;-72
2022/10/24 06:51:18;;;;;;;10.25;0.98;;;14.50;99.90;;;;;;5155283;27;20042;-73
2022/10/24 06:53:44;;;;;;;9.57;0.93;;;14.60;99.90;;;;;;5154556;27;20070;-72
2022/10/24 06:56:10;;;;;;;5.88;0.70;;;14.50;99.90;;;;;;5154917;27;20030;-73
2022/10/24 06:58:39;;;;;;;7.63;0.82;;;14.60;99.90;;;;;;5138816;27;20081;-72
2022/10/24 07:01:17;;;;;;;9.05;0.73;;;14.60;99.90;;;;;;5135985;27;20043;-73
2022/10/24 07:03:46;;;;;;;5.88;0.70;;;14.60;99.90;;;;;;5155213;27;20433;-72
2022/10/24 07:06:25;;;;;;;4.20;0.88;;;14.70;99.90;;;;;;5136237;27;20042;-71
2022/10/24 07:08:52;;;;;;;7.32;0.82;;;14.70;99.90;;;;;;5136178;27;20046;-74
2022/10/24 07:11:18;;;;;;;;;;;14.70;99.90;;;;;;5154694;27;20042;-71
2022/10/24 07:13:43;;;;;;;3.83;0.80;;;14.80;99.90;;;;;;5136634;27;19919;-72
2022/10/24 07:16:09;;;;;;;8.05;0.70;;;14.70;99.90;;;;;;5142018;27;20043;-73
2022/10/24 07:18:35;;;;;;;8.73;0.80;;;14.80;99.90;;;;;;5160269;27;20053;-71
2022/10/24 07:21:03;;;;;;;6.20;0.60;;;14.80;99.90;;;;;;5155905;27;20130;-74
2022/10/24 07:23:29;;;;;;;4.10;0.70;;;14.80;99.90;;;;;;5154385;27;20082;-73
2022/10/24 07:26:00;;;;;;;6.18;0.70;;;14.90;99.90;;;;;;5154132;27;20081;-73
2022/10/24 07:28:25;;;;;;;7.80;0.90;;;15.10;99.90;;;;;;5153610;27;20458;-73
2022/10/24 07:30:51;;;;;;;7.30;1.10;;;15.10;99.90;;;;;;5118583;27;20181;-75
2022/10/24 07:33:17;;;;;;;9.10;1.13;;;15.20;99.90;;;;;;5136143;27;20070;-73
2022/10/24 07:35:42;;;;;;;6.25;0.70;;;15.30;99.90;;;;;;5154044;27;20159;-71
2022/10/24 07:38:08;;;;;;;6.00;0.70;;;15.40;99.90;;;;;;5154080;27;20039;-72
2022/10/24 07:40:34;;;;;;;7.50;0.95;;;15.40;99.90;;;;;;5135433;27;20047;-72
2022/10/24 07:43:00;;;;;;;8.02;0.85;;;15.40;99.90;;;;;;5120627;27;20061;-72
2022/10/24 07:45:27;;;;;;;8.35;0.80;;;15.50;99.90;;;;;;5158124;27;20043;-72
2022/10/24 07:47:52;;;;;;;;;;;15.50;99.90;;;;;;5158394;27;20050;-72
2022/10/24 07:50:18;;;;;;;4.60;0.60;;;15.60;99.90;;;;;;5158347;27;20267;-71
2022/10/24 07:52:44;;;;;;;10.32;0.70;;;15.60;99.90;;;;;;5139080;27;20035;-71
2022/10/24 07:55:11;;;;;;;6.25;0.70;;;15.70;99.90;;;;;;5121720;27;20099;-71
2022/10/24 07:57:37;;;;;;;8.40;0.85;;;15.70;99.90;;;;;;5138597;27;20482;-71
2022/10/24 08:00:04;;;;;;;6.60;0.63;;;15.70;99.90;;;;;;5157704;27;20057;-74
2022/10/24 08:02:29;;;;;;;7.82;0.80;;;15.80;99.90;;;;;;5157843;27;20042;-71
2022/10/24 08:04:55;;;;;;;6.72;0.77;;;15.80;99.90;;;;;;5139639;27;20376;-71
2022/10/24 08:07:21;;;;;;;5.15;0.50;;;15.90;99.90;;;;;;5157260;27;20074;-72
2022/10/24 08:09:47;;;;;;;7.22;0.60;;;16.00;99.90;;;;;;5157431;27;20050;-71
2022/10/24 08:12:13;;;;;;;8.43;0.70;;;16.10;99.90;;;;;;5157142;27;20050;-73
2022/10/24 08:14:40;;;;;;;7.30;0.80;;;16.20;99.90;;;;;;5157841;27;20046;-74
2022/10/24 08:17:06;;;;;;;8.43;0.80;;;16.20;99.90;;;;;;5138600;27;20054;-77
2022/10/24 08:19:33;;;;;;;6.30;0.60;;;16.30;99.90;;;;;;5138646;27;20475;-71
2022/10/24 08:21:59;;;;;;;7.65;0.68;;;16.30;99.90;;;;;;5138445;27;20183;-70
2022/10/24 08:24:25;;;;;;;10.35;0.70;;;16.70;99.90;;;;;;5138344;27;20482;-72
2022/10/24 08:26:51;;;;;;;6.28;0.50;;;16.70;99.90;;;;;;5138521;27;20061;-70
2022/10/24 08:29:21;;;;;;;6.88;0.90;;;16.70;99.90;;;;;;5138673;27;20058;-72
2022/10/24 08:31:52;;;;;;;4.60;0.68;;;16.70;99.90;;;;;;5122202;27;20050;-73
2022/10/24 08:34:19;;;;;;;9.65;0.93;;;16.60;99.90;;;;;;5156565;27;20127;-72
2022/10/24 08:36:45;;;;;;;6.82;0.63;;;16.60;99.90;;;;;;5156634;27;20047;-71
2022/10/24 08:39:11;;;;;;;;;;;16.70;99.90;;;;;;5157454;27;20050;-73
2022/10/24 08:41:40;;;;;;;8.60;0.63;;;16.70;99.90;;;;;;5138375;27;19946;-71
2022/10/24 08:44:28;;;;;;;7.63;0.50;;;16.80;99.90;;;;;;5137936;27;20130;-72
2022/10/24 08:47:17;;;;;;;6.80;0.60;;;16.90;99.90;;;;;;5156423;27;20043;-71
2022/10/24 08:49:53;;;;;;;11.27;0.85;;;16.90;99.90;;;;;;5138433;27;20570;-71
2022/10/24 08:52:41;;;;;;;9.90;0.60;;;16.90;99.90;;;;;;5156730;27;20043;-73
2022/10/24 08:55:20;;;;;;;6.72;0.60;;;16.90;99.90;;;;;;5136982;27;20471;-72
2022/10/24 08:57:51;;;;;;;6.30;0.80;;;16.90;99.90;;;;;;5139042;27;20039;-73
2022/10/24 09:00:25;;;;;;;8.38;1.23;;;16.90;99.90;;;;;;5156512;27;20188;-71
2022/10/24 09:03:15;;;;;;;9.55;0.80;;;16.80;99.90;;;;;;5138663;27;20043;-74
2022/10/24 09:05:53;;;;;;;5.57;0.60;;;16.80;99.90;;;;;;5121245;27;20085;-71
2022/10/24 09:08:47;;;;;;;6.40;0.60;;;16.80;99.90;;;;;;5156575;27;20054;-70
2022/10/24 09:11:22;;;;;;;6.55;0.47;;;16.80;99.90;;;;;;5156070;27;20046;-73
2022/10/24 09:13:47;;;;;;;10.48;0.52;;;16.90;99.90;;;;;;5156009;27;20054;-73
2022/10/24 09:16:21;;;;;;;9.40;1.02;;;17.00;99.90;;;;;;5137361;27;20053;-74
2022/10/24 09:18:50;;;;;;;8.25;0.50;;;17.10;99.90;;;;;;5139019;27;20076;-72
2022/10/24 09:21:16;;;;;;;4.25;0.50;;;17.20;99.90;;;;;;5155518;27;20054;-74
2022/10/24 09:23:43;;;;;;;4.47;0.47;;;17.30;99.90;;;;;;5155603;27;20039;-73
2022/10/24 09:26:22;;;;;;;7.57;0.60;;;17.30;99.90;;;;;;5155687;27;20038;-74
2022/10/24 09:28:48;;;;;;;6.85;0.68;;;17.30;99.90;;;;;;5155408;27;20192;-74
2022/10/24 09:31:20;;;;;;;4.18;0.35;;;17.40;99.90;;;;;;5137708;27;20187;-74
2022/10/24 09:33:49;;;;;;;6.63;0.40;;;17.30;99.90;;;;;;5158247;27;20043;-75
2022/10/24 09:36:17;;;;;;;3.88;0.60;;;17.20;99.90;;;;;;5137892;27;20050;-72
2022/10/24 09:38:43;;;;;;;9.07;0.75;;;17.10;99.90;;;;;;5158000;27;20145;-72
2022/10/24 09:41:12;;;;;;;4.93;0.30;;;17.10;99.90;;;;;;5156052;27;20046;-71
2022/10/24 09:43:45;;;;;;;5.95;0.40;;;17.20;99.90;;;;;;5139235;27;20454;-72
2022/10/24 09:46:17;;;;;;;4.53;0.30;;;17.20;99.90;;;;;;5156053;27;20061;-72
2022/10/24 09:49:00;;;;;;;4.50;0.40;;;17.20;99.90;;;;;;5156137;27;20086;-72
2022/10/24 09:51:39;;;;;;;7.03;0.40;;;17.30;99.90;;;;;;5137255;27;20047;-71
2022/10/24 09:54:25;;;;;;;8.00;0.60;;;17.40;99.90;;;;;;5137445;27;20042;-72
2022/10/24 09:57:13;;;;;;;5.15;0.50;;;17.30;99.90;;;;;;5156038;27;20042;-72
2022/10/24 09:59:43;;;;;;;5.38;0.50;;;17.10;99.90;;;;;;5156059;27;20074;-73
2022/10/24 10:02:23;;;;;;;5.55;0.82;;;17.30;99.90;;;;;;5137765;27;20051;-72
2022/10/24 10:05:01;;;;;;;5.03;0.38;;;17.40;99.90;;;;;;5138661;27;20452;-71
2022/10/24 10:07:32;;;;;;;5.38;0.40;;;17.30;99.90;;;;;;5132565;27;20043;-75
2022/10/24 10:10:06;;;;;;;6.65;0.35;;;17.20;99.90;;;;;;5159519;27;20067;-71
2022/10/24 10:12:38;;;;;;;5.32;0.43;;;17.00;99.90;;;;;;5161471;27;20101;-74
2022/10/24 10:15:36;;;;;;;6.93;0.50;;;16.90;99.90;;;;;;5168829;27;20053;-71
2022/10/24 10:18:20;;;;;;;3.95;0.45;;;16.50;99.90;;;;;;5128964;27;20394;-72
2022/10/24 10:21:07;;;;;;;5.88;0.70;;;16.00;99.90;;;;;;5161650;27;20057;-72
2022/10/24 10:23:39;;;;;;;6.88;0.70;;;15.80;99.90;;;;;;5160030;27;20054;-72
2022/10/24 10:26:42;;;;;;;5.35;0.60;;;15.80;99.90;;;;;;5140662;27;20095;-72
2022/10/24 10:29:17;;;;;;;7.72;0.60;;;15.80;99.90;;;;;;5156433;27;20513;-70
2022/10/24 10:32:10;;;;;;;4.90;0.60;;;15.70;99.90;;;;;;5139278;27;20057;-71
2022/10/24 10:34:49;;;;;;;4.82;0.45;;;15.70;99.90;;;;;;5137409;27;20443;-71
2022/10/24 10:37:34;;;;;;;9.45;0.90;;;15.70;99.90;;;;;;5140834;27;20507;-72
2022/10/24 10:40:15;;;;;;;9.95;0.80;;;15.70;99.90;;;;;;5155972;27;20577;-72
2022/10/24 10:42:41;;;;;;;6.18;0.47;;;15.90;99.90;;;;;;5155380;27;20085;-70
2022/10/24 10:45:29;;;;;;;9.95;0.70;;;16.00;99.90;;;;;;5135788;27;20078;-71
2022/10/24 10:48:12;;;;;;;6.57;0.73;;;16.10;99.90;;;;;;5154879;27;20053;-72
2022/10/24 10:51:17;;;;;;;4.38;0.43;;;16.30;99.90;;;;;;5137122;27;20121;-73
2022/10/24 10:54:06;;;;;;;7.60;0.52;;;16.40;99.90;;;;;;5149678;27;20084;-71
2022/10/24 10:56:49;;;;;;;6.13;0.77;;;16.40;99.90;;;;;;5155944;27;20146;-73
2022/10/24 10:59:48;;;;;;;7.07;0.70;;;16.50;99.90;;;;;;5156928;27;20042;-72
2022/10/24 11:02:31;;;;;;;9.73;0.50;;;16.50;99.90;;;;;;5152166;27;20065;-74
2022/10/24 11:05:39;;;;;;;7.03;0.52;;;16.60;99.90;;;;;;5125338;27;20057;-71
2022/10/24 11:08:07;;;;;;;8.98;0.60;;;16.70;99.90;;;;;;5146965;27;20042;-71
2022/10/24 11:10:45;;;;;;;2.33;0.28;;;16.80;99.90;;;;;;5133042;27;20050;-72
2022/10/24 11:13:34;;;;;;;7.88;0.60;;;16.80;99.90;;;;;;5147849;27;20053;-71
2022/10/24 11:16:06;;;;;;;6.32;0.60;;;16.80;99.90;;;;;;5151548;27;20042;-72
2022/10/24 11:18:41;;;;;;;8.32;0.40;;;16.90;99.90;;;;;;5137438;27;20070;-71
2022/10/24 11:21:10;;;;;;;4.93;0.60;;;17.00;99.90;;;;;;5153231;27;20423;-77
2022/10/24 11:23:59;;;;;;;7.38;0.60;;;17.10;99.90;;;;;;5168809;27;20039;-74
2022/10/24 11:27:16;;;;;;;8.60;0.60;;;17.20;99.90;;;;;;5151067;27;20054;-71
2022/10/24 11:29:56;;;;;;;5.38;0.50;;;17.20;99.90;;;;;;5140909;27;20055;-72
2022/10/24 11:32:31;;;;;;;5.53;0.60;;;17.20;99.90;;;;;;5136399;27;20051;-72
2022/10/24 11:35:22;;;;;;;5.45;0.40;;;17.20;99.90;;;;;;5136990;27;20035;-72
2022/10/24 11:37:51;;;;;;;5.93;0.50;;;17.20;99.90;;;;;;5141504;27;20089;-72
2022/10/24 11:40:22;;;;;;;7.00;0.40;;;17.30;99.90;;;;;;5142497;27;20054;-71
2022/10/24 11:43:13;;;;;;;3.83;0.70;;;17.30;99.90;;;;;;5142204;27;20171;-72
2022/10/24 11:45:50;;;;;;;6.53;0.70;;;17.40;99.90;;;;;;5142467;27;20452;-73
2022/10/24 11:48:31;;;;;;;3.88;0.45;;;17.40;99.90;;;;;;5142009;27;20129;-75
2022/10/24 11:51:19;;;;;;;5.55;0.60;;;17.30;99.90;;;;;;5139167;27;20111;-71
2022/10/24 11:54:07;;;;;;;6.32;0.50;;;17.30;99.90;;;;;;5140553;27;20039;-76
2022/10/24 11:56:55;;;;;;;3.10;0.40;;;17.20;99.90;;;;;;5137797;27;20055;-73
2022/10/24 11:59:24;;;;;;;6.57;0.60;;;17.30;99.90;;;;;;5140478;27;20050;-71
2022/10/24 12:02:14;;;;;;;4.28;0.40;;;17.40;99.90;;;;;;5142013;27;20443;-72
2022/10/24 12:04:57;;;;;;;5.03;0.40;;;17.50;99.90;;;;;;5142203;27;20035;-72
2022/10/24 12:07:35;;;;;;;5.68;0.40;;;17.50;99.90;;;;;;5139977;27;20059;-71
2022/10/24 12:10:43;;;;;;;9.75;0.60;;;17.40;99.90;;;;;;5140009;27;20621;-71
2022/10/24 12:13:36;;;;;;;6.95;0.40;;;17.20;99.90;;;;;;5116803;27;20406;-72
2022/10/24 12:16:23;;;;;;;4.55;0.38;;;17.20;99.90;;;;;;5141869;27;20038;-71
2022/10/24 12:18:55;;;;;;;8.02;0.40;;;17.20;99.90;;;;;;5138271;27;20051;-71
2022/10/24 12:21:25;;;;;;;4.95;0.40;;;17.10;99.90;;;;;;5142861;27;20084;-72
2022/10/24 12:24:00;;;;;;;4.30;0.50;;;17.20;99.90;;;;;;5140630;27;20356;-71
2022/10/24 12:26:29;;;;;;;3.65;0.43;;;17.20;99.90;;;;;;5124180;27;20362;-74
2022/10/24 12:29:00;;;;;;;2.55;0.30;;;17.20;99.90;;;;;;5138099;27;20051;-71
2022/10/24 12:31:37;;;;;;;5.78;0.57;;;17.30;99.90;;;;;;5138267;27;20039;-72
2022/10/24 12:34:18;;;;;;;6.13;0.50;;;17.30;99.90;;;;;;5143060;27;20051;-73
2022/10/24 12:37:10;;;;;;;5.45;0.32;;;17.40;99.90;;;;;;5123994;27;20208;-73
2022/10/24 12:39:50;;;;;;;3.80;0.47;;;17.30;99.90;;;;;;5141336;27;20054;-74
2022/10/24 12:42:22;;;;;;;6.35;0.70;;;17.30;99.90;;;;;;5141876;27;20047;-72
2022/10/24 12:45:14;;;;;;;2.70;0.25;;;17.30;99.90;;;;;;5141446;27;20039;-72
2022/10/24 12:48:17;;;;;;;7.55;0.50;;;17.30;99.90;;;;;;5130569;27;20051;-72
2022/10/24 12:50:54;;;;;;;6.18;0.40;;;17.40;99.90;;;;;;5141969;27;20043;-71
2022/10/24 12:53:58;;;;;;;5.13;0.50;;;17.40;99.90;;;;;;5138769;27;20047;-73
2022/10/24 12:56:25;;;;;;;3.05;0.40;;;17.40;99.90;;;;;;5122630;27;20043;-73
2022/10/24 12:59:19;;;;;;;4.32;0.95;;;17.50;99.90;;;;;;5140323;27;20057;-71
2022/10/24 13:01:49;;;;;;;5.13;0.30;;;17.40;99.90;;;;;;5118563;27;20047;-72
2022/10/24 13:04:26;;;;;;;4.82;0.40;;;17.50;99.90;;;;;;5141116;27;20043;-71
2022/10/24 13:07:17;;;;;;;10.38;0.38;;;17.50;99.90;;;;;;5140118;27;20043;-71
2022/10/24 13:10:00;;;;;;;2.13;0.30;;;17.50;99.90;;;;;;5141265;27;20050;-72
2022/10/24 13:12:58;;;;;;;4.38;0.40;;;17.40;99.90;;;;;;5139455;27;20047;-71
2022/10/24 13:15:40;;;;;;;3.38;0.40;;;17.40;99.90;;;;;;5056185;27;20112;-70